Time;durP1;ratioP1;P1;durP2;ratioP2;P2;SDS_P1;SDS_P2;PMS_P1;PMS_P2;Temp;Humidity;BMP_temperature;BMP_pressure;BME280_temperature;BME280_humidity;BME280_pressure;Samples;Min_cycle;Max_cycle;Signal;HPM_P1;HPM_P2
2022/12/20 13:54:59;;;;;;;35.97;20.83;;;;;;;8.45;60.90;100479.59;2430527;79;29852;-87
2022/12/20 13:58:45;;;;;;;34.30;19.30;;;;;;;8.25;60.63;100480.60;2376388;80;25784;-86
2022/12/20 14:02:28;;;;;;;38.63;20.97;;;;;;;8.10;60.78;100475.78;2319321;83;25818;-85
2022/12/20 14:06:19;;;;;;;29.80;17.67;;;;;;;8.02;60.68;100466.39;2287434;84;26070;-85
2022/12/20 14:10:24;;;;;;;;;;;;;;;;;;;;;
2022/12/20 14:13:59;;;;;;;30.10;17.70;;;;;;;8.02;60.50;100456.43;2296695;84;25703;-86
2022/12/20 14:17:45;;;;;;;34.98;19.67;;;;;;;8.06;60.23;100446.61;2302429;84;25734;-86
2022/12/20 14:21:21;;;;;;;29.12;18.20;;;;;;;8.09;60.09;100445.42;2249719;85;25956;-85
2022/12/20 14:24:58;;;;;;;32.55;18.70;;;;;;;8.09;59.92;100448.02;2238723;86;25718;-86
2022/12/20 14:29:05;;;;;;;34.92;18.12;;;;;;;8.10;59.85;100445.91;2288733;85;26320;-84
2022/12/20 14:32:56;;;;;;;28.05;15.85;;;;;;;8.11;59.69;100442.48;2299678;84;25711;-92
2022/12/20 14:37:01;;;;;;;36.53;18.27;;;;;;;8.29;59.75;100446.11;2233945;86;25807;-86
2022/12/20 14:40:35;;;;;;;33.38;17.75;;;;;;;8.51;59.69;100449.93;2210048;87;26381;-87
2022/12/20 14:44:34;;;;;;;28.35;17.25;;;;;;;8.70;59.56;100447.91;2165991;88;26381;-86
2022/12/20 14:48:32;;;;;;;30.68;17.35;;;;;;;8.83;59.39;100459.17;2121654;91;25754;-90
2022/12/20 14:52:46;;;;;;;27.02;17.55;;;;;;;8.94;59.22;100451.70;2051207;94;25790;-86
2022/12/20 14:56:34;;;;;;;29.02;17.48;;;;;;;9.03;59.02;100445.92;2045331;93;25998;-89
2022/12/20 15:00:43;;;;;;;27.75;16.05;;;;;;;9.09;58.87;100446.98;2016504;96;26120;-88
2022/12/20 15:04:26;;;;;;;26.87;17.20;;;;;;;9.14;58.66;100440.19;2032776;95;25858;-86
2022/12/20 15:12:54;;;;;;;26.73;16.70;;;;;;;9.17;58.36;100425.11;1885293;103;26512;-94
2022/12/20 15:17:15;;;;;;;26.05;16.80;;;;;;;9.18;58.13;100418.67;1824037;105;25859;-94
2022/12/20 15:21:22;;;;;;;;;;;;;;;;;;;;;
2022/12/20 15:26:00;;;;;;;26.05;17.35;;;;;;;9.18;57.95;100412.16;1797668;108;25941;-94
2022/12/20 15:29:41;;;;;;;29.75;17.42;;;;;;;9.18;57.87;100413.89;1765124;109;25898;-92
2022/12/20 15:39:39;;;;;;;25.10;16.27;;;;;;;9.17;57.77;100412.10;1739899;109;26078;-86
2022/12/20 15:43:21;;;;;;;25.43;15.60;;;;;;;9.13;57.65;100404.62;1795594;109;25871;-87
2022/12/20 15:46:47;;;;;;;25.92;15.68;;;;;;;9.13;57.62;100408.53;1794825;108;25960;-87
2022/12/20 15:50:23;;;;;;;30.77;17.27;;;;;;;9.10;57.59;100404.53;1770559;111;26004;-85
2022/12/20 15:53:55;;;;;;;28.07;17.40;;;;;;;9.11;57.61;100395.01;1770898;110;26522;-83
2022/12/20 15:57:27;;;;;;;28.10;17.02;;;;;;;9.10;57.44;100389.35;1766240;110;25849;-87
2022/12/20 16:01:01;;;;;;;24.95;16.30;;;;;;;9.08;57.41;100388.02;1791487;108;26605;-82
2022/12/20 16:04:27;;;;;;;24.55;16.35;;;;;;;9.06;57.41;100389.68;1803801;107;26186;-92
2022/12/20 16:08:05;;;;;;;25.82;17.07;;;;;;;9.07;57.36;100394.03;1859201;102;33080;-87
2022/12/20 16:11:39;;;;;;;32.10;16.75;;;;;;;9.06;57.28;100394.88;1916989;98;25919;-83
2022/12/20 16:15:11;;;;;;;25.27;15.93;;;;;;;9.05;57.30;100393.13;2065397;93;25917;-84
2022/12/20 16:18:44;;;;;;;25.92;16.73;;;;;;;9.03;57.22;100391.31;2065630;93;25794;-85
2022/12/20 16:22:07;;;;;;;32.35;17.95;;;;;;;9.02;57.22;100391.73;2064248;93;25663;-83
2022/12/20 16:25:40;;;;;;;25.90;17.45;;;;;;;9.02;57.18;100399.95;2060021;93;25913;-83
2022/12/20 16:29:07;;;;;;;27.52;17.55;;;;;;;8.98;57.17;100402.46;2086787;90;25782;-83
2022/12/20 16:32:33;;;;;;;28.67;16.32;;;;;;;8.97;57.14;100401.97;2090710;91;25756;-85
2022/12/20 16:36:05;;;;;;;29.50;17.87;;;;;;;8.96;57.16;100402.82;2067330;94;25979;-83
2022/12/20 16:39:39;;;;;;;27.30;16.57;;;;;;;8.95;57.15;100391.97;2051923;93;25796;-92
2022/12/20 16:47:29;;;;;;;26.50;16.87;;;;;;;8.95;57.12;100396.29;2067889;93;25790;-85
2022/12/20 16:51:01;;;;;;;30.50;19.12;;;;;;;8.95;57.11;100392.39;2080919;92;25722;-85
2022/12/20 16:54:39;;;;;;;28.38;17.77;;;;;;;8.95;57.00;100391.09;2059147;93;26003;-87
2022/12/20 16:58:25;;;;;;;27.62;17.95;;;;;;;8.92;56.98;100384.07;2053965;94;25933;-88
2022/12/20 17:02:03;;;;;;;26.60;16.93;;;;;;;8.92;56.97;100394.47;2040749;95;25818;-86
2022/12/20 17:05:35;;;;;;;30.72;17.23;;;;;;;8.92;56.94;100398.37;2020714;93;26039;-82
2022/12/20 17:09:10;;;;;;;32.35;18.20;;;;;;;8.92;56.94;100392.30;2018774;94;25792;-89
2022/12/20 17:12:45;;;;;;;27.20;16.55;;;;;;;8.93;56.96;100386.25;2018465;94;25808;-89
2022/12/20 17:16:36;;;;;;;27.30;15.65;;;;;;;8.91;56.92;100391.41;2018260;96;25677;-90
2022/12/20 17:20:02;;;;;;;26.90;16.30;;;;;;;8.91;56.91;100386.22;2021252;95;25995;-89
2022/12/20 17:23:39;;;;;;;;;;;;;;;;;;;;;
2022/12/20 17:27:19;;;;;;;;;;;;;;;;;;;;;
2022/12/20 17:31:03;;;;;;;28.92;17.77;;;;;;;8.90;56.85;100344.12;2092810;91;25895;-85
2022/12/20 17:34:31;;;;;;;24.18;16.25;;;;;;;8.88;56.75;100321.13;2097209;91;25860;-89
2022/12/20 17:38:06;;;;;;;27.32;17.15;;;;;;;8.84;56.65;100330.98;2110198;90;25898;-86
2022/12/20 17:41:53;;;;;;;27.52;17.82;;;;;;;8.82;56.75;100352.13;2186457;86;25760;-88
2022/12/20 17:45:35;;;;;;;26.77;17.70;;;;;;;8.83;56.76;100354.31;2260761;86;25785;-83
2022/12/20 17:49:14;;;;;;;29.20;17.85;;;;;;;8.82;56.80;100357.33;2233839;86;25837;-88
2022/12/20 17:52:37;;;;;;;24.82;16.07;;;;;;;8.83;56.85;100348.69;2266797;84;25886;-87
2022/12/20 17:56:06;;;;;;;25.77;17.20;;;;;;;8.84;56.81;100369.06;2251453;85;25758;-82
2022/12/20 17:59:30;;;;;;;29.18;18.30;;;;;;;8.83;56.79;100359.09;2263097;85;26121;-88
2022/12/20 18:02:56;;;;;;;28.32;17.55;;;;;;;8.83;56.79;100359.09;2269739;86;26397;-87
2022/12/20 18:06:28;;;;;;;29.60;16.37;;;;;;;8.83;56.79;100355.61;2240840;87;25760;-86
2022/12/20 18:10:02;;;;;;;29.07;17.17;;;;;;;8.84;56.74;100349.17;2282035;84;25678;-85
2022/12/20 18:13:39;;;;;;;27.60;17.05;;;;;;;8.84;56.79;100354.38;2303639;83;27094;-89
2022/12/20 18:17:15;;;;;;;;;;;;;;;;;;;;;
2022/12/20 18:20:34;;;;;;;26.75;16.55;;;;;;;8.86;56.70;100340.11;2292964;84;25266;-85
2022/12/20 18:24:00;;;;;;;31.50;17.55;;;;;;;8.86;56.71;100337.51;2226816;84;26613;-89
2022/12/20 18:27:53;;;;;;;31.30;16.70;;;;;;;8.85;56.70;100327.53;2192039;88;25741;-88
2022/12/20 18:31:47;;;;;;;25.05;18.23;;;;;;;8.85;56.65;100328.83;2182876;87;25908;-88
2022/12/20 18:35:19;;;;;;;24.52;18.17;;;;;;;8.85;56.66;100332.73;2054225;94;25813;-89
2022/12/20 18:38:48;;;;;;;25.95;17.07;;;;;;;8.85;56.64;100340.95;1993441;96;25981;-87
2022/12/20 18:42:16;;;;;;;27.42;17.77;;;;;;;8.85;56.65;100331.86;1975775;96;25791;-86
2022/12/20 18:45:50;;;;;;;21.62;14.38;;;;;;;8.85;56.62;100331.86;1985615;97;25758;-86
2022/12/20 18:49:22;;;;;;;27.37;15.88;;;;;;;8.85;56.60;100331.43;1992043;97;25837;-85
2022/12/20 18:52:59;;;;;;;26.90;16.80;;;;;;;8.86;56.60;100333.61;2013321;96;26188;-86
2022/12/20 18:56:27;;;;;;;24.95;15.83;;;;;;;8.86;56.56;100329.28;2025750;95;26546;-85
2022/12/20 18:59:56;;;;;;;24.57;16.15;;;;;;;8.84;56.55;100327.08;2010638;95;25764;-88
2022/12/20 19:03:40;;;;;;;25.92;16.30;;;;;;;8.84;56.55;100330.98;1999628;96;25948;-87
2022/12/20 19:07:01;;;;;;;25.95;15.78;;;;;;;8.84;56.52;100332.28;1944204;99;26770;-82
2022/12/20 19:10:35;;;;;;;26.42;16.67;;;;;;;8.86;56.54;100341.41;1969214;99;25797;-86
2022/12/20 19:14:06;;;;;;;24.65;16.45;;;;;;;8.86;56.56;100331.01;1960549;99;26086;-84
2022/12/20 19:17:41;;;;;;;24.80;16.17;;;;;;;8.87;56.54;100335.36;1970283;99;26072;-83
2022/12/20 19:21:30;;;;;;;;;;;;;;;;;;;;;
2022/12/20 19:24:45;;;;;;;24.02;16.17;;;;;;;8.85;56.47;100335.33;2014162;96;25926;-79
2022/12/20 19:28:07;;;;;;;25.72;15.90;;;;;;;8.84;56.45;100332.28;1997174;96;25796;-83
2022/12/20 19:31:36;;;;;;;21.65;15.48;;;;;;;8.83;56.46;100330.49;2045308;95;25938;-85
2022/12/20 19:35:08;;;;;;;27.98;16.90;;;;;;;8.83;56.46;100322.69;2057261;95;25841;-83
2022/12/20 19:38:46;;;;;;;;;;;;;;;;;;;;;
2022/12/20 19:42:13;;;;;;;26.30;16.55;;;;;;;8.82;56.36;100317.46;2187886;89;25331;-85
2022/12/20 19:45:32;;;;;;;26.27;16.45;;;;;;;8.82;56.39;100308.36;2300205;84;25789;-86
2022/12/20 19:48:56;;;;;;;24.00;16.50;;;;;;;8.82;56.39;100314.44;2288743;83;26252;-84
2022/12/20 19:52:38;;;;;;;25.10;16.00;;;;;;;8.82;56.36;100314.44;2301937;84;25409;-85
2022/12/20 19:56:10;;;;;;;22.87;15.78;;;;;;;8.81;56.36;100323.09;2288699;82;25812;-87
2022/12/20 19:59:42;;;;;;;27.52;16.50;;;;;;;8.81;56.39;100319.19;2338906;83;25738;-87
2022/12/20 20:03:11;;;;;;;25.52;15.63;;;;;;;8.81;56.36;100307.48;2314211;83;25734;-86
2022/12/20 20:06:59;;;;;;;25.20;15.97;;;;;;;8.80;56.31;100305.70;2399222;80;26356;-88
2022/12/20 20:10:47;;;;;;;25.25;16.15;;;;;;;8.79;56.24;100301.34;2249658;85;25771;-87
2022/12/20 20:14:13;;;;;;;25.00;15.40;;;;;;;8.78;56.31;100298.30;2225258;86;25819;-85
2022/12/20 20:17:44;;;;;;;32.08;16.52;;;;;;;8.78;56.23;100299.59;2206319;88;25916;-81
2022/12/20 20:21:23;;;;;;;25.20;17.15;;;;;;;8.77;56.24;100295.21;2220229;86;25953;-82
2022/12/20 20:24:56;;;;;;;28.27;16.70;;;;;;;8.77;56.21;100287.41;2234784;86;25770;-82
2022/12/20 20:28:41;;;;;;;27.22;16.93;;;;;;;8.75;56.11;100276.11;2212286;88;25779;-83
2022/12/20 20:32:07;;;;;;;24.25;15.58;;;;;;;8.75;56.03;100261.81;2213873;86;25847;-82
2022/12/20 20:35:53;;;;;;;24.87;16.67;;;;;;;8.73;56.13;100270.85;2215115;87;25767;-82
2022/12/20 20:39:25;;;;;;;28.27;16.53;;;;;;;8.73;56.10;100256.55;2208867;87;26011;-83
2022/12/20 20:46:30;;;;;;;25.52;15.10;;;;;;;8.74;56.94;100272.64;2203538;88;29113;-87
2022/12/20 20:50:14;;;;;;;27.35;16.23;;;;;;;8.84;58.30;100266.38;2213236;83;25912;-84
2022/12/20 20:53:36;;;;;;;25.32;15.53;;;;;;;8.86;58.36;100269.91;2310520;83;25677;-82
2022/12/20 20:57:11;;;;;;;27.10;16.15;;;;;;;8.86;58.20;100260.39;2328279;82;25364;-85
2022/12/20 21:04:34;;;;;;;29.42;16.35;;;;;;;8.84;58.06;100278.98;2330519;82;25620;-82
2022/12/20 21:08:01;;;;;;;27.65;17.17;;;;;;;8.75;57.80;100261.39;2336507;81;25786;-86
2022/12/20 21:11:33;;;;;;;24.63;16.60;;;;;;;8.45;57.36;100261.36;2325932;82;25634;-84
2022/12/20 21:15:06;;;;;;;27.93;17.02;;;;;;;8.07;57.18;100257.56;2309700;81;25747;-86
2022/12/20 21:18:54;;;;;;;29.35;17.65;;;;;;;7.94;57.46;100261.48;2176088;87;25824;-86
2022/12/20 21:22:38;;;;;;;28.17;18.60;;;;;;;8.03;57.42;100272.16;2133262;91;26573;-86
2022/12/20 21:26:28;;;;;;;26.23;17.37;;;;;;;8.13;57.40;100256.85;2129650;91;25961;-84
2022/12/20 21:30:04;;;;;;;27.82;17.55;;;;;;;8.20;57.10;100258.42;2136755;90;25939;-91
2022/12/20 21:34:12;;;;;;;;;;;;;;;;;;;;;
2022/12/20 21:37:48;;;;;;;28.60;17.42;;;;;;;7.89;56.72;100255.24;1997802;94;26347;-85
2022/12/20 21:41:16;;;;;;;31.02;18.27;;;;;;;7.78;56.69;100255.32;1996039;97;25766;-85
2022/12/20 21:44:41;;;;;;;30.75;18.05;;;;;;;7.67;56.71;100254.97;2056568;93;25819;-85
